Time;durP1;ratioP1;P1;durP2;ratioP2;P2;SDS_P1;SDS_P2;PMS_P1;PMS_P2;Temp;Humidity;BMP_temperature;BMP_pressure;BME280_temperature;BME280_humidity;BME280_pressure;Samples;Min_cycle;Max_cycle;Signal;HPM_P1;HPM_P2
2023/10/18 00:18:36;;;;;;;22.45;15.65;;;17.70;82.50;;;;;;4573745;19;20296;-73
2023/10/18 00:20:20;;;;;;;19.38;13.73;;;17.70;82.50;;;;;;4591361;19;20010;-73
2023/10/18 00:21:55;;;;;;;20.10;14.20;;;17.70;82.40;;;;;;4591659;19;20078;-73
2023/10/18 00:23:30;;;;;;;21.50;14.25;;;17.70;82.30;;;;;;4591401;19;20003;-73
2023/10/18 00:25:07;;;;;;;21.42;14.48;;;17.70;82.40;;;;;;4590015;19;20044;-73
2023/10/18 00:26:42;;;;;;;22.38;15.43;;;17.70;82.40;;;;;;4591126;19;20013;-73
2023/10/18 00:28:17;;;;;;;22.95;15.05;;;17.70;82.40;;;;;;4590628;19;20019;-73
2023/10/18 00:29:57;;;;;;;21.35;15.18;;;17.70;82.40;;;;;;4590684;19;20011;-73
2023/10/18 00:31:33;;;;;;;24.40;14.98;;;17.70;82.40;;;;;;4589898;19;20004;-73
2023/10/18 00:33:07;;;;;;;22.17;15.40;;;17.70;82.30;;;;;;4590747;19;20457;-73
2023/10/18 00:34:42;;;;;;;19.23;13.98;;;17.70;82.40;;;;;;4590054;19;20016;-73
2023/10/18 00:36:20;;;;;;;19.92;13.63;;;17.70;82.50;;;;;;4591169;19;20318;-73
2023/10/18 00:38:00;;;;;;;22.02;14.38;;;17.70;82.60;;;;;;4590742;19;20011;-72
2023/10/18 00:39:36;;;;;;;19.73;13.85;;;17.70;82.50;;;;;;4591322;19;20433;-73
2023/10/18 00:41:22;;;;;;;19.52;13.60;;;17.70;82.40;;;;;;4590989;19;20445;-73
2023/10/18 00:45:01;;;;;;;23.17;15.35;;;17.70;82.40;;;;;;4589822;19;19999;-73
2023/10/18 00:46:38;;;;;;;21.13;15.15;;;17.70;82.40;;;;;;4590913;19;20003;-73
2023/10/18 00:48:14;;;;;;;20.67;14.35;;;17.70;82.50;;;;;;4590533;19;20014;-73
2023/10/18 00:49:52;;;;;;;21.35;15.85;;;17.70;82.40;;;;;;4590866;19;20011;-73
2023/10/18 00:51:27;;;;;;;23.63;16.77;;;17.70;82.30;;;;;;4591100;19;20021;-73
2023/10/18 00:53:02;;;;;;;24.85;15.63;;;17.70;82.40;;;;;;4590926;19;20025;-73
2023/10/18 00:54:39;;;;;;;20.00;15.95;;;17.70;82.40;;;;;;4588320;19;20018;-73
2023/10/18 00:56:15;;;;;;;22.17;15.20;;;17.70;82.50;;;;;;4590403;19;20003;-73
2023/10/18 00:57:49;;;;;;;22.52;15.73;;;17.70;82.50;;;;;;4590375;19;20007;-73
2023/10/18 00:59:28;;;;;;;22.20;15.18;;;17.70;82.60;;;;;;4590717;19;20006;-73
2023/10/18 01:01:09;;;;;;;19.98;14.85;;;17.70;82.70;;;;;;4589373;19;20013;-73
2023/10/18 01:02:43;;;;;;;19.77;14.73;;;17.70;83.00;;;;;;4590462;19;19999;-73
2023/10/18 01:04:23;;;;;;;21.48;15.20;;;17.60;83.20;;;;;;4590563;19;20377;-73
2023/10/18 01:06:12;;;;;;;20.55;14.68;;;17.70;83.20;;;;;;4589343;19;20018;-73
2023/10/18 01:07:53;;;;;;;18.92;14.90;;;17.70;83.20;;;;;;4589183;19;20465;-73
2023/10/18 01:09:32;;;;;;;19.95;15.13;;;17.70;83.30;;;;;;4589353;19;20014;-73
2023/10/18 01:11:07;;;;;;;18.08;14.68;;;17.70;83.30;;;;;;4590079;19;20002;-73
2023/10/18 01:12:44;;;;;;;19.17;15.20;;;17.70;83.40;;;;;;4589252;19;20009;-73
2023/10/18 01:14:24;;;;;;;17.42;15.38;;;17.70;83.50;;;;;;4589463;19;20003;-73
2023/10/18 01:15:59;;;;;;;19.40;15.65;;;17.70;83.50;;;;;;4590347;19;20445;-73
2023/10/18 01:17:42;;;;;;;19.27;14.95;;;17.70;83.70;;;;;;4588985;19;20025;-72
2023/10/18 01:19:19;;;;;;;21.02;14.88;;;17.70;84.40;;;;;;4590433;19;20024;-73
2023/10/18 01:20:54;;;;;;;19.48;15.30;;;17.70;84.00;;;;;;4590250;19;20066;-73
2023/10/18 01:22:30;;;;;;;19.60;13.93;;;17.70;84.10;;;;;;4590194;19;20016;-73
2023/10/18 01:24:13;;;;;;;21.33;16.05;;;17.70;84.30;;;;;;4590783;19;20013;-73
2023/10/18 01:25:48;;;;;;;19.92;14.20;;;17.70;84.90;;;;;;4589104;19;20062;-73
2023/10/18 01:27:23;;;;;;;18.10;12.88;;;17.70;84.40;;;;;;4588848;19;20017;-73
2023/10/18 01:29:03;;;;;;;20.80;13.57;;;17.70;84.70;;;;;;4589307;19;20006;-73
2023/10/18 01:30:38;;;;;;;19.52;13.23;;;17.70;84.80;;;;;;4589098;19;20469;-73
2023/10/18 01:32:13;;;;;;;21.92;13.95;;;17.70;84.90;;;;;;4589717;19;20006;-73
2023/10/18 01:33:50;;;;;;;17.35;12.13;;;17.70;85.00;;;;;;4589676;19;20024;-73
2023/10/18 01:35:24;;;;;;;18.17;12.77;;;17.70;85.20;;;;;;4588659;19;20010;-73
2023/10/18 01:36:59;;;;;;;15.43;10.10;;;17.70;85.30;;;;;;4589690;19;20020;-73
2023/10/18 01:38:34;;;;;;;15.05;9.85;;;17.70;85.40;;;;;;4589048;19;20082;-73
2023/10/18 01:40:41;;;;;;;15.38;10.35;;;17.70;85.40;;;;;;4590025;19;20017;-73
2023/10/18 01:42:17;;;;;;;15.88;10.35;;;17.70;85.40;;;;;;4594576;19;20013;-73
2023/10/18 01:44:08;;;;;;;16.42;11.00;;;17.70;85.60;;;;;;4594807;19;20360;-73
2023/10/18 01:45:48;;;;;;;14.23;9.65;;;17.70;85.70;;;;;;4593168;19;20006;-73
2023/10/18 01:47:23;;;;;;;11.90;8.77;;;17.70;85.60;;;;;;4593379;19;19995;-73
2023/10/18 01:48:58;;;;;;;15.45;9.85;;;17.70;85.60;;;;;;4592775;19;20010;-73
2023/10/18 01:50:33;;;;;;;13.23;9.25;;;17.70;85.70;;;;;;4594521;19;20429;-73
2023/10/18 01:52:08;;;;;;;13.40;9.40;;;17.70;85.70;;;;;;4594528;19;20013;-73
2023/10/18 01:53:43;;;;;;;12.57;9.57;;;17.70;85.80;;;;;;4593852;19;20010;-73
2023/10/18 01:55:17;;;;;;;12.40;8.98;;;17.60;85.70;;;;;;4594414;19;20025;-73
2023/10/18 01:56:53;;;;;;;12.38;8.43;;;17.70;85.80;;;;;;4594267;19;20336;-73
2023/10/18 01:58:30;;;;;;;13.05;8.50;;;17.70;85.70;;;;;;4593119;19;20315;-73
2023/10/18 02:00:04;;;;;;;14.13;9.32;;;17.70;85.80;;;;;;4594083;19;20010;-73
2023/10/18 02:01:39;;;;;;;13.43;8.75;;;17.70;86.00;;;;;;4594194;19;20278;-73
2023/10/18 02:03:14;;;;;;;12.63;9.07;;;17.70;85.90;;;;;;4593103;19;20074;-73
2023/10/18 02:04:49;;;;;;;15.32;9.10;;;17.70;85.80;;;;;;4593748;19;20009;-73
2023/10/18 02:06:22;;;;;;;11.75;8.77;;;17.70;85.90;;;;;;4594019;19;20103;-73
2023/10/18 02:08:00;;;;;;;13.27;9.27;;;17.70;86.00;;;;;;4593799;19;20332;-73
2023/10/18 02:09:48;;;;;;;14.23;9.10;;;17.70;86.10;;;;;;4594129;19;20011;-73
2023/10/18 02:11:22;;;;;;;13.57;9.43;;;17.70;86.10;;;;;;4594175;19;20010;-73
2023/10/18 02:12:57;;;;;;;15.55;10.60;;;17.70;86.30;;;;;;4593888;19;20007;-73
2023/10/18 02:14:33;;;;;;;14.38;10.20;;;17.70;86.30;;;;;;4592668;19;20417;-72
2023/10/18 02:16:09;;;;;;;15.27;10.25;;;17.70;86.30;;;;;;4593949;19;20455;-73
2023/10/18 02:17:46;;;;;;;16.48;10.93;;;17.70;86.10;;;;;;4593353;19;20429;-73
2023/10/18 02:19:21;;;;;;;13.15;9.40;;;17.70;86.10;;;;;;4593931;19;20006;-73
2023/10/18 02:20:58;;;;;;;14.35;9.55;;;17.70;86.30;;;;;;4594136;19;20030;-72
2023/10/18 02:22:37;;;;;;;11.88;8.27;;;17.70;86.30;;;;;;4593776;19;20027;-73
2023/10/18 02:24:12;;;;;;;14.65;9.75;;;17.70;86.40;;;;;;4593706;19;20274;-73
2023/10/18 02:25:47;;;;;;;13.77;9.88;;;17.70;86.50;;;;;;4593901;19;20073;-73
2023/10/18 02:27:23;;;;;;;14.15;10.20;;;17.70;86.50;;;;;;4593872;19;20303;-73
2023/10/18 02:29:05;;;;;;;16.45;10.70;;;17.70;86.70;;;;;;4592150;19;20007;-73
2023/10/18 02:30:41;;;;;;;13.30;9.15;;;17.70;87.00;;;;;;4592336;19;20035;-73
2023/10/18 02:32:32;;;;;;;13.80;9.90;;;17.70;86.80;;;;;;4592305;19;20041;-73
2023/10/18 02:34:05;;;;;;;13.57;9.75;;;17.70;86.70;;;;;;4592631;19;20007;-73
2023/10/18 02:35:43;;;;;;;12.02;9.20;;;17.70;86.90;;;;;;4593689;19;20287;-73
2023/10/18 02:37:28;;;;;;;13.48;9.82;;;17.70;87.00;;;;;;4592827;19;20383;-72
2023/10/18 02:39:11;;;;;;;12.48;9.25;;;17.70;87.00;;;;;;4592314;19;20013;-73
2023/10/18 02:40:45;;;;;;;13.90;9.93;;;17.70;87.00;;;;;;4592202;19;19998;-73
2023/10/18 02:42:20;;;;;;;13.45;10.57;;;17.70;87.20;;;;;;4592129;19;20006;-72
2023/10/18 02:43:57;;;;;;;16.38;10.13;;;17.70;87.20;;;;;;4593108;19;20306;-72
2023/10/18 02:45:31;;;;;;;13.82;9.55;;;17.70;87.10;;;;;;4592198;19;20006;-73
2023/10/18 02:47:29;;;;;;;14.32;9.45;;;17.70;86.90;;;;;;4592961;19;20007;-73
2023/10/18 02:49:07;;;;;;;12.55;8.77;;;17.70;86.90;;;;;;4590798;19;20011;-73
2023/10/18 02:50:42;;;;;;;14.00;9.40;;;17.70;86.90;;;;;;4593190;19;20007;-73
2023/10/18 02:52:18;;;;;;;13.32;8.40;;;17.70;86.80;;;;;;4593157;19;20002;-73
2023/10/18 02:54:07;;;;;;;11.20;8.48;;;17.70;86.80;;;;;;4592499;19;20009;-73
2023/10/18 02:55:42;;;;;;;11.57;7.93;;;17.70;86.90;;;;;;4592301;19;20007;-73
2023/10/18 02:57:19;;;;;;;11.95;7.65;;;17.70;86.70;;;;;;4591745;19;20433;-73
2023/10/18 02:58:55;;;;;;;11.63;7.45;;;17.70;86.80;;;;;;4591777;19;20006;-73
2023/10/18 03:00:34;;;;;;;12.02;7.50;;;17.70;86.80;;;;;;4592992;19;19998;-73
2023/10/18 03:02:24;;;;;;;12.57;8.80;;;17.70;87.40;;;;;;4591727;19;20365;-73
2023/10/18 03:04:00;;;;;;;13.50;8.30;;;17.70;86.60;;;;;;4593139;19;20342;-73
2023/10/18 03:05:40;;;;;;;14.48;9.15;;;17.80;86.60;;;;;;4593423;19;20020;-73
2023/10/18 03:07:16;;;;;;;14.85;9.15;;;17.80;86.40;;;;;;4592639;19;20436;-73
2023/10/18 03:08:50;;;;;;;12.77;7.82;;;17.90;86.30;;;;;;4591349;19;20011;-73
2023/10/18 03:10:32;;;;;;;11.85;7.68;;;17.90;86.00;;;;;;4593677;19;20015;-73
2023/10/18 03:12:18;;;;;;;13.27;8.00;;;18.00;86.20;;;;;;4592436;19;20066;-73
2023/10/18 03:13:57;;;;;;;14.55;10.00;;;18.00;85.90;;;;;;4593336;19;20006;-73
2023/10/18 03:15:31;;;;;;;13.18;8.77;;;18.10;85.90;;;;;;4592641;19;20074;-73
2023/10/18 03:17:36;;;;;;;18.48;12.05;;;18.10;85.80;;;;;;4592539;19;20029;-73
2023/10/18 03:19:13;;;;;;;26.35;16.60;;;18.10;85.70;;;;;;4591307;19;20056;-73
2023/10/18 03:20:47;;;;;;;47.67;25.58;;;18.10;85.40;;;;;;4593608;19;20006;-72
2023/10/18 03:22:33;;;;;;;62.17;34.22;;;18.10;85.30;;;;;;4593734;19;20001;-72
2023/10/18 03:24:08;;;;;;;77.18;43.25;;;18.10;85.20;;;;;;4593700;19;20002;-72
2023/10/18 03:25:42;;;;;;;82.75;46.10;;;18.10;85.90;;;;;;4592376;19;19999;-72
2023/10/18 03:27:18;;;;;;;82.00;47.22;;;18.10;85.40;;;;;;4593103;19;19998;-72
2023/10/18 03:28:52;;;;;;;83.85;48.78;;;18.20;85.40;;;;;;4592229;19;20014;-73
2023/10/18 03:30:47;;;;;;;57.00;34.75;;;18.10;85.40;;;;;;4593320;19;20002;-72
2023/10/18 03:32:22;;;;;;;44.10;29.08;;;18.10;85.60;;;;;;4593601;19;20010;-72
2023/10/18 03:34:09;;;;;;;34.05;21.35;;;18.10;85.50;;;;;;4592738;19;20021;-72
2023/10/18 03:35:46;;;;;;;25.98;16.58;;;18.10;85.40;;;;;;4591986;19;20010;-73
2023/10/18 03:37:24;;;;;;;24.83;13.25;;;18.10;85.30;;;;;;4593397;19;20430;-72
2023/10/18 03:39:19;;;;;;;21.92;13.48;;;18.10;85.10;;;;;;4592400;19;20283;-72
2023/10/18 03:41:07;;;;;;;16.92;10.05;;;18.10;85.10;;;;;;4592149;19;20006;-72
2023/10/18 03:42:45;;;;;;;16.45;10.30;;;18.10;85.10;;;;;;4593168;19;20308;-71
2023/10/18 03:44:27;;;;;;;13.90;9.18;;;18.20;85.00;;;;;;4593338;19;20018;-72
2023/10/18 03:48:00;;;;;;;21.45;14.25;;;18.30;85.00;;;;;;4591779;19;20007;-72
2023/10/18 03:49:36;;;;;;;27.65;17.02;;;18.40;84.90;;;;;;4592889;19;20030;-73
2023/10/18 03:51:23;;;;;;;22.67;15.65;;;18.40;84.80;;;;;;4593019;19;20315;-72
2023/10/18 03:53:00;;;;;;;21.08;15.05;;;18.50;84.60;;;;;;4591849;19;20418;-72
2023/10/18 03:55:04;;;;;;;20.00;15.70;;;18.50;84.40;;;;;;4591656;19;20315;-73
2023/10/18 03:56:39;;;;;;;20.40;14.07;;;18.50;84.30;;;;;;4592944;19;20114;-73
2023/10/18 03:58:22;;;;;;;18.80;13.88;;;18.50;84.30;;;;;;4592540;19;20006;-73
2023/10/18 03:59:59;;;;;;;17.55;13.25;;;18.50;84.20;;;;;;4592885;19;20023;-72
2023/10/18 04:01:48;;;;;;;16.45;12.68;;;18.50;84.20;;;;;;4591526;19;19998;-73
2023/10/18 04:03:29;;;;;;;14.05;10.80;;;18.50;84.20;;;;;;4592165;19;20006;-72
2023/10/18 04:05:16;;;;;;;17.08;11.88;;;18.60;84.30;;;;;;4592915;19;20013;-73
2023/10/18 04:06:51;;;;;;;16.92;11.25;;;18.60;84.40;;;;;;4591311;19;20014;-73
2023/10/18 04:08:28;;;;;;;15.55;11.55;;;18.60;84.30;;;;;;4590865;19;20010;-73
2023/10/18 04:10:13;;;;;;;13.65;10.13;;;18.50;84.20;;;;;;4592251;19;20103;-73
2023/10/18 04:11:47;;;;;;;14.00;10.60;;;18.50;84.20;;;;;;4592861;19;20007;-73
2023/10/18 04:13:24;;;;;;;14.35;9.70;;;18.60;84.50;;;;;;4592554;19;20006;-72
2023/10/18 04:15:01;;;;;;;14.68;11.25;;;18.60;84.40;;;;;;4591723;19;20006;-73
2023/10/18 04:16:35;;;;;;;15.32;10.90;;;18.50;84.30;;;;;;4592406;19;20007;-73
2023/10/18 04:18:12;;;;;;;13.98;10.38;;;18.50;84.30;;;;;;4591574;19;20433;-73
2023/10/18 04:19:52;;;;;;;14.60;10.18;;;18.50;84.30;;;;;;4592405;19;20006;-73
2023/10/18 04:21:26;;;;;;;15.70;10.90;;;18.50;84.20;;;;;;4592454;19;20306;-73
2023/10/18 04:23:25;;;;;;;15.77;11.45;;;18.40;84.10;;;;;;4592325;19;20018;-73
2023/10/18 04:24:56;;;;;;;17.52;11.80;;;18.40;84.40;;;;;;4591159;19;20006;-73
2023/10/18 04:26:31;;;;;;;15.13;10.60;;;18.40;84.50;;;;;;4592483;19;20005;-73
2023/10/18 04:28:06;;;;;;;15.27;10.88;;;18.40;84.70;;;;;;4592060;19;20028;-72
2023/10/18 04:29:47;;;;;;;16.45;11.25;;;18.40;84.70;;;;;;4590896;19;20007;-73
2023/10/18 04:31:22;;;;;;;17.95;12.05;;;18.30;84.80;;;;;;4591208;19;20011;-73
2023/10/18 04:33:43;;;;;;;17.25;10.70;;;18.30;84.80;;;;;;4591861;19;20433;-73
2023/10/18 04:34:57;;;;;;;14.80;10.50;;;18.30;85.00;;;;;;4590047;19;20438;-73
2023/10/18 04:36:33;;;;;;;18.10;11.55;;;18.30;85.10;;;;;;4592121;19;20002;-73
2023/10/18 04:38:21;;;;;;;22.17;14.18;;;18.30;85.20;;;;;;4591632;19;20017;-73
2023/10/18 04:39:57;;;;;;;23.05;15.70;;;18.30;85.20;;;;;;4591040;19;20018;-73
2023/10/18 04:41:33;;;;;;;21.02;14.15;;;18.20;85.10;;;;;;4591525;19;20054;-73
2023/10/18 04:43:10;;;;;;;16.25;11.70;;;18.30;85.30;;;;;;4592289;19;20464;-73
2023/10/18 04:44:49;;;;;;;12.25;8.77;;;18.30;85.30;;;;;;4592288;19;20010;-73
2023/10/18 04:46:28;;;;;;;12.25;8.90;;;18.30;85.10;;;;;;4592267;19;20425;-73
2023/10/18 04:48:06;;;;;;;14.95;9.52;;;18.20;85.20;;;;;;4591729;19;20041;-73
2023/10/18 04:50:11;;;;;;;14.55;10.50;;;18.20;85.10;;;;;;4581326;19;20039;-73
2023/10/18 04:52:52;;;;;;;14.52;10.18;;;18.20;85.00;;;;;;4590313;19;20051;-73
2023/10/18 04:55:34;;;;;;;14.23;9.77;;;18.20;85.20;;;;;;4589723;19;20006;-73
2023/10/18 04:58:10;;;;;;;11.43;8.65;;;18.20;85.10;;;;;;4588559;19;20030;-73
2023/10/18 05:01:13;;;;;;;13.18;8.45;;;18.10;85.20;;;;;;4587029;19;20014;-73
2023/10/18 05:03:31;;;;;;;12.52;9.00;;;18.10;85.40;;;;;;4589081;19;20014;-73
2023/10/18 05:06:11;;;;;;;14.68;10.40;;;18.10;85.30;;;;;;4588713;19;20033;-73
2023/10/18 05:08:36;;;;;;;16.23;10.82;;;18.10;85.10;;;;;;4588480;19;20018;-73
2023/10/18 05:13:32;;;;;;;18.63;12.27;;;18.10;84.80;;;;;;4586224;19;19982;-73
2023/10/18 05:15:16;;;;;;;16.02;10.60;;;18.10;84.60;;;;;;4586736;19;20011;-73
2023/10/18 05:16:53;;;;;;;21.60;15.07;;;18.20;84.60;;;;;;4591851;19;20007;-73
2023/10/18 05:28:17;;;;;;;30.35;19.05;;;18.60;83.80;;;;;;4590263;19;20006;-73
2023/10/18 05:29:58;;;;;;;29.85;19.73;;;18.70;83.60;;;;;;4596141;19;20013;-73
2023/10/18 05:32:25;;;;;;;28.90;19.92;;;18.80;83.60;;;;;;4595812;19;20006;-74
2023/10/18 05:35:28;;;;;;;28.67;19.98;;;18.90;83.20;;;;;;4595759;19;20440;-73
2023/10/18 05:37:13;;;;;;;28.20;19.00;;;19.00;82.90;;;;;;4594646;19;20006;-73
2023/10/18 05:38:49;;;;;;;28.95;18.85;;;19.10;82.80;;;;;;4594355;19;20025;-73
2023/10/18 05:42:13;;;;;;;30.48;18.25;;;19.20;82.70;;;;;;4595872;19;20006;-73
2023/10/18 05:43:48;;;;;;;29.33;18.40;;;19.30;82.50;;;;;;4595866;19;20013;-73
2023/10/18 05:45:26;;;;;;;24.98;17.48;;;19.30;82.40;;;;;;4595559;19;20433;-73
2023/10/18 05:47:06;;;;;;;24.25;16.40;;;19.40;82.60;;;;;;4595504;19;20013;-73
2023/10/18 05:48:45;;;;;;;22.70;15.55;;;19.40;82.40;;;;;;4594452;19;20310;-73
2023/10/18 05:50:19;;;;;;;23.63;15.57;;;19.50;82.50;;;;;;4595478;19;20007;-73
2023/10/18 05:52:15;;;;;;;22.92;15.40;;;19.50;82.50;;;;;;4595593;19;20002;-73
2023/10/18 05:53:49;;;;;;;15.07;10.45;;;19.60;82.50;;;;;;4594012;19;20006;-73
2023/10/18 05:55:24;;;;;;;12.88;9.00;;;19.60;82.60;;;;;;4593934;19;20345;-73
2023/10/18 05:56:59;;;;;;;10.70;7.50;;;19.60;82.80;;;;;;4594898;19;20002;-73
2023/10/18 05:58:35;;;;;;;10.77;7.22;;;19.70;83.00;;;;;;4594154;19;20422;-73
2023/10/18 06:00:17;;;;;;;10.15;7.60;;;19.70;82.90;;;;;;4595161;19;20002;-73
2023/10/18 06:02:00;;;;;;;11.40;8.43;;;18.40;82.20;;;;;;4595325;19;20007;-80
2023/10/18 06:03:42;;;;;;;10.02;7.40;;;15.50;87.40;;;;;;4595081;19;20018;-73
2023/10/18 06:05:17;;;;;;;10.68;8.00;;;14.00;90.80;;;;;;4594080;19;20007;-73
2023/10/18 06:06:58;;;;;;;11.00;7.87;;;13.20;91.70;;;;;;4594791;19;20302;-73
2023/10/18 06:08:33;;;;;;;11.43;8.70;;;12.80;92.50;;;;;;4594006;19;20318;-73
2023/10/18 06:10:16;;;;;;;12.50;9.77;;;12.60;92.90;;;;;;4593678;19;20046;-73
2023/10/18 06:11:50;;;;;;;13.27;10.00;;;12.40;93.30;;;;;;4594758;19;20006;-73
2023/10/18 06:13:27;;;;;;;12.63;9.73;;;12.30;93.60;;;;;;4595210;19;20317;-73
2023/10/18 06:15:10;;;;;;;17.20;12.33;;;12.20;93.70;;;;;;4593387;19;20006;-73
2023/10/18 06:16:51;;;;;;;22.80;14.23;;;12.10;94.10;;;;;;4594921;19;20024;-73
2023/10/18 06:18:30;;;;;;;20.03;12.63;;;12.10;94.20;;;;;;4594413;19;20491;-73
2023/10/18 06:21:59;;;;;;;17.23;11.23;;;12.00;94.50;;;;;;4595040;19;20425;-73
2023/10/18 06:23:37;;;;;;;19.47;11.53;;;12.00;94.60;;;;;;4594870;19;20404;-73
2023/10/18 06:25:25;;;;;;;18.97;10.90;;;12.00;94.70;;;;;;4593278;19;20444;-73
2023/10/18 06:27:00;;;;;;;16.90;10.87;;;12.00;94.90;;;;;;4592540;19;20405;-73
2023/10/18 06:28:37;;;;;;;15.63;10.67;;;11.90;95.00;;;;;;4591876;19;20500;-73
2023/10/18 06:30:17;;;;;;;13.47;10.73;;;12.00;94.90;;;;;;4593355;19;20394;-73
2023/10/18 06:31:53;;;;;;;12.33;9.57;;;12.00;94.90;;;;;;4593296;19;20353;-73
2023/10/18 06:33:35;;;;;;;13.70;9.63;;;12.00;95.10;;;;;;4594364;19;20408;-73
2023/10/18 06:35:19;;;;;;;11.70;8.80;;;12.00;95.20;;;;;;4594742;19;20370;-73
2023/10/18 06:36:54;;;;;;;12.67;9.17;;;12.00;95.10;;;;;;4594812;19;20410;-73
2023/10/18 06:38:30;;;;;;;13.30;9.47;;;12.00;95.10;;;;;;4593523;19;20429;-73
2023/10/18 06:40:07;;;;;;;11.77;8.60;;;12.00;95.10;;;;;;4593034;19;20453;-73
2023/10/18 06:41:45;;;;;;;12.13;8.03;;;12.00;95.50;;;;;;4593963;19;20512;-73
2023/10/18 06:43:25;;;;;;;12.33;8.80;;;12.00;95.60;;;;;;4593051;19;20369;-73
2023/10/18 06:45:02;;;;;;;12.07;8.47;;;12.10;95.40;;;;;;4593848;19;20935;-73
2023/10/18 06:46:38;;;;;;;13.37;8.20;;;12.10;95.70;;;;;;4593044;19;20353;-73
2023/10/18 06:48:14;;;;;;;12.90;8.87;;;12.10;95.70;;;;;;4593327;19;20421;-73
2023/10/18 06:49:48;;;;;;;13.83;8.73;;;12.20;95.40;;;;;;4594387;19;20392;-73
2023/10/18 06:51:40;;;;;;;11.40;8.50;;;12.20;95.70;;;;;;4594394;19;20389;-72
2023/10/18 06:53:16;;;;;;;12.57;8.60;;;12.30;95.80;;;;;;4592895;19;20361;-72
2023/10/18 06:54:54;;;;;;;13.87;9.17;;;12.30;95.90;;;;;;4593013;19;20416;-71
2023/10/18 06:56:29;;;;;;;13.77;8.83;;;12.30;95.60;;;;;;4594108;19;20357;-71
2023/10/18 06:58:12;;;;;;;14.40;9.00;;;12.40;95.60;;;;;;4593837;19;20437;-71
2023/10/18 06:59:47;;;;;;;10.70;7.77;;;12.40;95.90;;;;;;4594012;19;20755;-70
2023/10/18 07:01:32;;;;;;;12.23;7.83;;;12.40;95.90;;;;;;4592456;19;20506;-69
2023/10/18 07:03:12;;;;;;;11.37;7.80;;;12.40;95.70;;;;;;4594311;19;20012;-70
2023/10/18 07:04:52;;;;;;;10.98;7.28;;;12.40;95.80;;;;;;4592574;19;20638;-71
2023/10/18 07:06:29;;;;;;;9.33;6.43;;;12.50;96.00;;;;;;4592902;19;20007;-71
2023/10/18 07:08:05;;;;;;;10.03;6.10;;;12.50;95.60;;;;;;4593306;19;20697;-71
2023/10/18 07:09:53;;;;;;;10.83;6.50;;;12.50;96.10;;;;;;4592733;19;20006;-71
2023/10/18 07:11:27;;;;;;;9.63;6.00;;;12.50;95.70;;;;;;4593322;19;20926;-72
2023/10/18 07:13:03;;;;;;;8.97;6.07;;;12.60;96.00;;;;;;4592704;19;20374;-73
2023/10/18 07:14:38;;;;;;;9.40;6.17;;;12.60;95.80;;;;;;4592253;19;20404;-73
2023/10/18 07:16:18;;;;;;;8.63;5.30;;;12.60;96.00;;;;;;4592140;19;20361;-72
2023/10/18 07:17:55;;;;;;;9.67;5.63;;;12.60;96.20;;;;;;4591594;19;20059;-71
2023/10/18 07:21:38;;;;;;;6.07;4.50;;;12.70;95.80;;;;;;4590663;19;20006;-71
2023/10/18 07:23:20;;;;;;;6.77;4.53;;;12.70;96.20;;;;;;4591265;19;20451;-72
2023/10/18 07:24:54;;;;;;;5.97;4.10;;;12.70;95.50;;;;;;4591348;19;20950;-72
2023/10/18 07:26:31;;;;;;;6.87;4.00;;;12.70;95.90;;;;;;4591080;19;20818;-72
2023/10/18 07:28:06;;;;;;;6.27;3.90;;;12.70;95.20;;;;;;4590628;19;20476;-72
2023/10/18 07:29:46;;;;;;;6.13;4.13;;;12.70;95.50;;;;;;4591562;19;20007;-72
2023/10/18 07:31:32;;;;;;;7.63;4.60;;;12.70;95.50;;;;;;4591367;19;20914;-72
2023/10/18 07:33:09;;;;;;;6.47;4.73;;;12.80;95.50;;;;;;4591395;19;20674;-72
2023/10/18 07:34:44;;;;;;;6.60;4.70;;;12.80;95.50;;;;;;4590310;19;20046;-72
2023/10/18 07:36:19;;;;;;;7.87;4.50;;;12.80;95.70;;;;;;4591093;19;20420;-72
2023/10/18 07:37:56;;;;;;;7.13;3.83;;;12.80;95.50;;;;;;4590567;19;20419;-72
2023/10/18 07:39:32;;;;;;;5.57;3.93;;;12.80;95.50;;;;;;4589327;19;20010;-72
2023/10/18 07:41:08;;;;;;;6.93;3.97;;;12.80;95.50;;;;;;4591019;19;19995;-72
2023/10/18 07:42:44;;;;;;;6.80;3.67;;;12.90;95.70;;;;;;4591162;19;20461;-72
2023/10/18 07:44:18;;;;;;;5.93;4.00;;;12.80;95.30;;;;;;4590984;19;20425;-72
2023/10/18 07:45:55;;;;;;;6.80;4.30;;;12.90;95.20;;;;;;4590964;19;20321;-72
2023/10/18 07:47:32;;;;;;;8.47;4.97;;;12.90;95.60;;;;;;4591096;19;20003;-72
2023/10/18 07:49:12;;;;;;;6.77;4.70;;;12.90;95.50;;;;;;4589899;19;20463;-72
2023/10/18 07:50:54;;;;;;;7.38;4.22;;;12.90;95.80;;;;;;4590623;19;20010;-72
2023/10/18 07:52:29;;;;;;;6.13;3.88;;;12.90;95.20;;;;;;4590375;19;20010;-71
2023/10/18 07:54:05;;;;;;;6.73;3.90;;;13.00;96.00;;;;;;4590116;19;20005;-71
2023/10/18 07:55:43;;;;;;;7.47;3.33;;;13.00;95.30;;;;;;4590596;19;20381;-71
2023/10/18 07:57:18;;;;;;;6.70;4.03;;;13.00;95.60;;;;;;4590824;19;20447;-73
2023/10/18 07:58:53;;;;;;;7.00;4.57;;;13.00;95.40;;;;;;4591283;19;20571;-73
2023/10/18 08:00:32;;;;;;;7.33;4.10;;;13.00;95.50;;;;;;4592584;19;20029;-73
2023/10/18 08:02:12;;;;;;;6.70;3.90;;;13.00;95.20;;;;;;4590887;19;20010;-73
2023/10/18 08:03:51;;;;;;;6.70;4.03;;;13.00;95.60;;;;;;4592144;19;20377;-73
2023/10/18 08:05:31;;;;;;;5.83;3.90;;;13.00;95.20;;;;;;4591586;19;20010;-72
2023/10/18 08:07:05;;;;;;;7.17;4.70;;;13.00;95.30;;;;;;4592341;19;20010;-73
2023/10/18 08:08:42;;;;;;;5.23;3.37;;;13.00;95.30;;;;;;4590491;19;20472;-71
2023/10/18 08:10:23;;;;;;;6.03;3.70;;;13.10;95.10;;;;;;4592617;19;20363;-71
2023/10/18 08:12:00;;;;;;;6.70;4.00;;;13.10;95.10;;;;;;4592502;19;20445;-71
2023/10/18 08:13:44;;;;;;;6.70;4.03;;;13.20;95.20;;;;;;4591512;19;20389;-72
2023/10/18 08:15:22;;;;;;;4.83;3.10;;;13.20;95.30;;;;;;4592371;19;20010;-71
2023/10/18 08:16:56;;;;;;;6.23;3.00;;;13.10;94.70;;;;;;4592517;19;20031;-71
2023/10/18 08:18:43;;;;;;;6.00;3.43;;;13.20;95.00;;;;;;4591952;19;20013;-73
2023/10/18 08:23:40;;;;;;;7.23;4.17;;;13.30;95.20;;;;;;4592609;19;20005;-73
2023/10/18 08:25:31;;;;;;;6.10;3.33;;;13.30;95.00;;;;;;4592356;19;20010;-73
2023/10/18 08:27:12;;;;;;;4.70;2.97;;;13.40;94.90;;;;;;4590759;19;20437;-73
2023/10/18 08:29:12;;;;;;;4.97;3.33;;;13.40;94.90;;;;;;4577758;19;20018;-75
2023/10/18 08:31:34;;;;;;;5.50;3.00;;;13.40;95.00;;;;;;4588573;19;20017;-76
2023/10/18 08:34:18;;;;;;;5.37;2.77;;;13.50;94.90;;;;;;4588806;19;20470;-73
2023/10/18 08:37:01;;;;;;;4.33;2.67;;;13.50;94.80;;;;;;4588756;19;20450;-73
2023/10/18 08:39:30;;;;;;;3.97;2.37;;;13.50;94.70;;;;;;4589568;19;20322;-72
2023/10/18 08:42:21;;;;;;;5.30;2.63;;;13.60;94.70;;;;;;4591210;19;20018;-72
2023/10/18 08:44:55;;;;;;;5.03;3.10;;;13.60;95.10;;;;;;4590312;19;20028;-72
2023/10/18 08:47:29;;;;;;;4.30;2.60;;;13.60;94.80;;;;;;4591894;19;20007;-71
2023/10/18 08:49:59;;;;;;;5.63;2.30;;;13.70;94.50;;;;;;4590609;19;20021;-72
2023/10/18 08:52:35;;;;;;;5.20;2.50;;;14.20;94.70;;;;;;4594112;19;20014;-72
2023/10/18 08:57:55;;;;;;;3.57;1.90;;;15.20;93.70;;;;;;4593943;19;20303;-72
2023/10/18 09:02:52;;;;;;;3.83;2.58;;;15.80;92.80;;;;;;4593755;19;20018;-72
2023/10/18 09:05:15;;;;;;;10.90;5.75;;;16.00;92.50;;;;;;4594009;19;20030;-72
2023/10/18 09:07:42;;;;;;;8.23;4.50;;;16.10;92.40;;;;;;4596034;19;20023;-72
2023/10/18 09:09:25;;;;;;;8.85;3.30;;;16.30;91.90;;;;;;4595133;19;20007;-72
2023/10/18 09:11:03;;;;;;;4.10;1.70;;;16.40;91.90;;;;;;4594666;19;20002;-72
2023/10/18 09:14:17;;;;;;;3.47;1.55;;;16.50;91.50;;;;;;4594711;19;20010;-71
2023/10/18 09:17:31;;;;;;;3.78;1.50;;;16.70;91.40;;;;;;4594876;19;20451;-72
2023/10/18 09:19:09;;;;;;;2.95;1.38;;;16.70;91.40;;;;;;4593921;19;20014;-72
2023/10/18 09:20:46;;;;;;;4.00;2.00;;;16.80;91.20;;;;;;4595064;19;20009;-73
2023/10/18 09:22:20;;;;;;;5.00;1.85;;;16.80;91.10;;;;;;4594988;19;20013;-72
2023/10/18 09:24:00;;;;;;;3.67;1.60;;;16.80;91.20;;;;;;4595678;19;20010;-72
2023/10/18 09:26:01;;;;;;;6.85;1.88;;;16.90;91.10;;;;;;4594619;19;20017;-71
2023/10/18 09:27:37;;;;;;;4.75;1.80;;;16.90;91.20;;;;;;4594076;19;20367;-72
2023/10/18 09:29:12;;;;;;;5.72;2.30;;;17.00;91.20;;;;;;4595755;19;19998;-72
2023/10/18 09:30:47;;;;;;;5.82;2.80;;;17.00;91.10;;;;;;4595904;19;20006;-71
2023/10/18 09:32:32;;;;;;;6.45;3.40;;;17.00;90.90;;;;;;4595784;19;20009;-71
2023/10/18 09:34:09;;;;;;;5.07;2.38;;;17.10;90.90;;;;;;4594346;19;20029;-71
2023/10/18 09:35:48;;;;;;;4.63;1.60;;;17.10;91.00;;;;;;4595708;19;20321;-71
2023/10/18 09:37:35;;;;;;;5.05;2.38;;;17.10;90.90;;;;;;4594428;19;20010;-71
2023/10/18 09:39:13;;;;;;;5.32;1.70;;;17.10;90.80;;;;;;4594454;19;20011;-72
2023/10/18 09:40:48;;;;;;;3.15;1.42;;;17.20;90.90;;;;;;4595275;19;20074;-72